Time;durP1;ratioP1;P1;durP2;ratioP2;P2;SDS_P1;SDS_P2;PMS_P1;PMS_P2;Temp;Humidity;BMP_temperature;BMP_pressure;BME280_temperature;BME280_humidity;BME280_pressure;Samples;Min_cycle;Max_cycle;Signal;HPM_P1;HPM_P2
2021/12/20 00:01:59;;;;;;;;;;;;;;;8.20;72.09;100829.72;5053288;28;19925;-62
2021/12/20 00:04:25;;;;;;;;;;;;;;;8.17;72.08;100824.56;5054549;28;19925;-60
2021/12/20 00:06:52;;;;;;;;;;;;;;;8.13;71.97;100822.91;5054453;28;19967;-60
2021/12/20 00:09:18;;;;;;;;;;;;;;;8.10;72.03;100825.63;5054046;28;20288;-60
2021/12/20 00:11:45;;;;;;;;;;;;;;;8.08;72.22;100827.44;5053240;28;20002;-60
2021/12/20 00:14:11;;;;;;;;;;;;;;;8.04;72.11;100817.94;5054361;28;20018;-61
2021/12/20 00:16:38;;;;;;;;;;;;;;;8.01;72.12;100818.03;5054255;28;19967;-62
2021/12/20 00:19:09;;;;;;;;;;;;;;;7.99;72.33;100830.34;5054079;28;19927;-65
2021/12/20 00:21:36;;;;;;;;;;;;;;;7.95;72.35;100814.69;5054400;28;19925;-61
2021/12/20 00:24:03;;;;;;;;;;;;;;;7.92;72.17;100806.91;5054105;28;19928;-60
2021/12/20 00:26:29;;;;;;;;;;;;;;;7.89;72.33;100809.59;5054095;28;19925;-61
2021/12/20 00:28:56;;;;;;;;;;;;;;;7.87;72.18;100814.03;5054415;28;19978;-60
2021/12/20 00:31:23;;;;;;;;;;;;;;;7.85;72.45;100823.69;5053809;28;20289;-60
2021/12/20 00:33:49;;;;;;;;;;;;;;;7.82;72.34;100816.78;5054001;28;19974;-62
2021/12/20 00:36:21;;;;;;;;;;;;;;;7.79;72.03;100823.88;5053909;28;20051;-61
2021/12/20 00:41:34;;;;;;;;;;;;;;;7.73;72.27;100824.06;5053555;28;19921;-61
2021/12/20 00:44:01;;;;;;;;;;;;;;;7.70;72.13;100838.09;5052434;28;19924;-60
2021/12/20 00:46:47;;;;;;;;;;;;;;;7.68;71.98;100832.06;5053949;28;20061;-61
2021/12/20 00:49:14;;;;;;;;;;;;;;;7.65;72.22;100832.13;5053270;28;19924;-61
2021/12/20 00:51:40;;;;;;;;;;;;;;;7.62;72.42;100827.00;5053872;28;19970;-61
2021/12/20 00:54:07;;;;;;;;;;;;;;;7.60;72.30;100827.03;5052349;28;19921;-60
2021/12/20 00:56:33;;;;;;;;;;;;;;;7.59;72.37;100838.38;5053594;28;19921;-60
2021/12/20 00:59:00;;;;;;;;;;;;;;;7.56;72.51;100830.63;5053288;28;19990;-60
2021/12/20 01:01:26;;;;;;;;;;;;;;;7.55;72.14;100829.75;5053223;28;19979;-60
2021/12/20 01:03:53;;;;;;;;;;;;;;;7.53;72.34;100834.19;5052397;28;20367;-60
2021/12/20 01:06:20;;;;;;;;;;;;;;;7.52;72.42;100831.63;5053287;28;19967;-62
2021/12/20 01:08:48;;;;;;;;;;;;;;;7.49;72.29;100826.44;5053557;28;19928;-61
2021/12/20 01:11:21;;;;;;;;;;;;;;;7.48;72.14;100829.97;5053076;28;20003;-61
2021/12/20 01:13:47;;;;;;;;;;;;;;;7.46;71.91;100837.00;5053306;28;19921;-60
2021/12/20 01:16:15;;;;;;;;;;;;;;;7.43;72.37;100835.31;5053170;28;19924;-60
2021/12/20 01:18:41;;;;;;;;;;;;;;;7.40;72.14;100830.19;5053293;28;19978;-60
2021/12/20 01:21:08;;;;;;;;;;;;;;;7.38;72.06;100831.97;5052904;28;19975;-60
2021/12/20 01:23:36;;;;;;;;;;;;;;;7.34;72.06;100836.44;5053119;28;19926;-60
2021/12/20 01:26:03;;;;;;;;;;;;;;;7.33;71.90;100834.69;5052925;28;19925;-63
2021/12/20 01:28:30;;;;;;;;;;;;;;;7.31;72.29;100841.75;5052889;28;19921;-60
2021/12/20 01:30:56;;;;;;;;;;;;;;;7.28;72.01;100840.06;5052849;28;20418;-62
2021/12/20 01:33:23;;;;;;;;;;;;;;;7.25;72.28;100834.91;5052981;28;19924;-60
2021/12/20 01:35:50;;;;;;;;;;;;;;;7.23;72.19;100836.72;5052648;28;19921;-61
2021/12/20 01:38:16;;;;;;;;;;;;;;;7.21;72.02;100840.28;5052721;28;19927;-60
2021/12/20 01:40:43;;;;;;;;;;;;;;;7.18;72.46;100838.59;5052324;28;19929;-62
2021/12/20 01:43:11;;;;;;;;;;;;;;;7.16;72.52;100846.50;5052434;28;19921;-61
2021/12/20 01:45:38;;;;;;;;;;;;;;;7.15;72.55;100847.38;5053136;28;19920;-60
2021/12/20 01:48:10;;;;;;;;;;;;;;;7.13;72.14;100850.94;5052451;28;19927;-61
2021/12/20 01:50:51;;;;;;;;;;;;;;;7.10;72.02;100854.47;5052033;28;19944;-61
2021/12/20 01:53:22;;;;;;;;;;;;;;;7.07;71.98;100851.97;5052313;28;19921;-60
2021/12/20 01:55:49;;;;;;;;;;;;;;;7.03;71.85;100853.78;5051399;28;19932;-60
2021/12/20 01:58:16;;;;;;;;;;;;;;;7.00;72.09;100847.75;5052418;28;19928;-60
2021/12/20 02:01:01;;;;;;;;;;;;;;;6.97;71.88;100850.44;5052196;28;19932;-60
2021/12/20 02:03:28;;;;;;;;;;;;;;;6.94;72.15;100858.38;5052036;28;19924;-61
2021/12/20 02:05:58;;;;;;;;;;;;;;;6.90;71.95;100858.47;5052088;28;19975;-60
2021/12/20 02:08:28;;;;;;;;;;;;;;;6.88;72.32;100868.09;5050896;28;19927;-61
2021/12/20 02:10:56;;;;;;;;;;;;;;;6.88;72.31;100864.63;5051777;28;19944;-61
2021/12/20 02:13:24;;;;;;;;;;;;;;;6.88;72.32;100862.84;5052047;28;20372;-60
2021/12/20 02:15:51;;;;;;;;;;;;;;;6.90;72.49;100868.06;5050758;28;20007;-60
2021/12/20 02:18:18;;;;;;;;;;;;;;;6.92;72.69;100874.13;5050774;28;20327;-62
2021/12/20 02:20:44;;;;;;;;;;;;;;;6.95;73.03;100879.28;5051657;28;19924;-61
2021/12/20 02:23:11;;;;;;;;;;;;;;;7.00;73.24;100879.19;5051897;28;19978;-61
2021/12/20 02:25:37;;;;;;;;;;;;;;;7.03;73.07;100881.72;5052154;28;20324;-60
2021/12/20 02:28:05;;;;;;;;;;;;;;;7.08;73.35;100873.75;5051780;28;20394;-62
2021/12/20 02:36:58;;;;;;;;;;;;;;;7.19;73.53;100871.75;5051592;28;19925;-61
2021/12/20 02:38:41;;;;;;;;;;;;;;;7.22;73.24;100866.41;5051137;28;20388;-62
2021/12/20 02:41:10;;;;;;;;;;;;;;;7.24;72.97;100871.59;5049991;28;19928;-60
2021/12/20 02:43:40;;;;;;;;;;;;;;;7.26;72.85;100872.44;5050158;28;19929;-61
2021/12/20 02:49:06;;;;;;;;;;;;;;;7.28;73.12;100868.88;5051440;28;19935;-61
2021/12/20 02:51:33;;;;;;;;;;;;;;;7.28;72.90;100866.25;5050142;28;19920;-61
2021/12/20 02:54:00;;;;;;;;;;;;;;;7.28;73.15;100862.78;5051063;28;19967;-60
2021/12/20 02:56:27;;;;;;;;;;;;;;;7.29;73.16;100861.91;5049975;28;20376;-61
2021/12/20 02:58:54;;;;;;;;;;;;;;;7.29;73.11;100867.13;5051206;28;19924;-61
2021/12/20 03:01:20;;;;;;;;;;;;;;;7.28;72.85;100861.03;5050829;28;19920;-60
2021/12/20 03:03:49;;;;;;;;;;;;;;;7.29;73.12;100854.03;5051066;28;19931;-61
2021/12/20 03:06:18;;;;;;;;;;;;;;;7.29;72.80;100861.91;5051087;28;19920;-60
2021/12/20 03:08:46;;;;;;;;;;;;;;;7.27;72.98;100856.69;5051068;28;20010;-61
2021/12/20 03:11:13;;;;;;;;;;;;;;;7.27;73.00;100858.44;5049616;28;19978;-61
2021/12/20 03:13:41;;;;;;;;;;;;;;;7.26;72.75;100852.34;5051180;28;19929;-61
2021/12/20 03:16:08;;;;;;;;;;;;;;;7.24;72.54;100848.91;5050892;28;20461;-62
2021/12/20 03:18:34;;;;;;;;;;;;;;;7.22;72.52;100849.84;5049491;28;19943;-61
2021/12/20 03:21:01;;;;;;;;;;;;;;;7.19;72.62;100855.16;5050175;28;20608;-60
2021/12/20 03:23:27;;;;;;;;;;;;;;;7.15;72.31;100849.97;5050510;28;19925;-60
2021/12/20 03:25:54;;;;;;;;;;;;;;;7.11;72.44;100847.50;5050940;28;20007;-60
2021/12/20 03:28:21;;;;;;;;;;;;;;;7.07;72.00;100849.34;5050730;28;20019;-61
2021/12/20 03:30:47;;;;;;;;;;;;;;;7.02;72.08;100836.34;5050666;28;19940;-62
2021/12/20 03:33:14;;;;;;;;;;;;;;;6.99;71.88;100843.44;5050743;28;19950;-59
2021/12/20 03:35:40;;;;;;;;;;;;;;;6.96;72.23;100848.72;5050606;28;20281;-60
2021/12/20 03:38:08;;;;;;;;;;;;;;;6.93;71.92;100848.81;5050803;28;19921;-60
2021/12/20 03:40:35;;;;;;;;;;;;;;;6.89;71.86;100848.88;5050449;28;20296;-61
2021/12/20 03:43:01;;;;;;;;;;;;;;;6.86;72.30;100843.72;5050757;28;19925;-62
2021/12/20 03:45:28;;;;;;;;;;;;;;;6.83;71.83;100854.25;5050456;28;20421;-60
2021/12/20 03:47:54;;;;;;;;;;;;;;;6.82;71.97;100847.31;5050646;28;20021;-61
2021/12/20 03:50:21;;;;;;;;;;;;;;;6.79;72.21;100844.75;5050193;28;19967;-60
2021/12/20 03:52:47;;;;;;;;;;;;;;;6.77;72.16;100849.19;5049409;28;19983;-60
2021/12/20 03:55:14;;;;;;;;;;;;;;;6.75;72.08;100853.56;5050567;28;19990;-60
2021/12/20 03:57:41;;;;;;;;;;;;;;;6.74;72.07;100857.09;5050610;28;19925;-60
2021/12/20 04:00:10;;;;;;;;;;;;;;;6.73;72.22;100858.00;5050135;28;20358;-62
2021/12/20 04:02:41;;;;;;;;;;;;;;;6.71;72.49;100851.94;5050336;28;19925;-61
2021/12/20 04:05:08;;;;;;;;;;;;;;;6.70;72.16;100858.94;5049390;28;19929;-61
2021/12/20 04:07:35;;;;;;;;;;;;;;;6.68;72.45;100862.44;5050593;28;19921;-61
2021/12/20 04:10:02;;;;;;;;;;;;;;;6.66;72.03;100859.91;5050289;28;19978;-60
2021/12/20 04:12:29;;;;;;;;;;;;;;;6.64;72.39;100864.28;5049228;28;19925;-60
2021/12/20 04:14:55;;;;;;;;;;;;;;;6.62;72.12;100864.31;5050458;28;20384;-60
2021/12/20 04:17:22;;;;;;;;;;;;;;;6.61;72.49;100875.69;5050892;28;20439;-60
2021/12/20 04:19:48;;;;;;;;;;;;;;;6.59;72.10;100871.38;5050190;28;19924;-62
2021/12/20 04:22:18;;;;;;;;;;;;;;;6.57;72.43;100879.25;5050212;28;19921;-60
2021/12/20 04:24:45;;;;;;;;;;;;;;;6.56;72.06;100876.69;5048970;28;19974;-62
2021/12/20 04:27:11;;;;;;;;;;;;;;;6.53;72.23;100880.22;5050118;28;20411;-60
2021/12/20 04:29:38;;;;;;;;;;;;;;;6.51;72.22;100879.41;5048765;28;19924;-60
2021/12/20 04:32:05;;;;;;;;;;;;;;;6.50;72.18;100875.06;5050147;28;19925;-61
2021/12/20 04:34:32;;;;;;;;;;;;;;;6.48;72.37;100876.84;5053594;28;19921;-60
2021/12/20 04:36:58;;;;;;;;;;;;;;;6.44;72.00;100876.06;5053888;28;19986;-62
2021/12/20 04:39:29;;;;;;;;;;;;;;;6.42;72.17;100870.00;5053591;28;19924;-61
2021/12/20 04:41:56;;;;;;;;;;;;;;;6.39;72.38;100868.31;5052518;28;19920;-60
2021/12/20 04:44:22;;;;;;;;;;;;;;;6.38;72.26;100870.97;5053834;28;19921;-60
2021/12/20 04:46:49;;;;;;;;;;;;;;;6.35;71.98;100865.78;5054007;28;19924;-62
2021/12/20 04:49:16;;;;;;;;;;;;;;;6.33;72.19;100863.22;5052129;28;20099;-60
2021/12/20 04:51:43;;;;;;;;;;;;;;;6.31;72.04;100867.63;5053689;28;19925;-61
2021/12/20 04:54:10;;;;;;;;;;;;;;;6.30;72.19;100859.78;5052400;28;19987;-61
2021/12/20 04:56:36;;;;;;;;;;;;;;;6.28;72.28;100869.44;5052383;28;20324;-62
2021/12/20 04:59:03;;;;;;;;;;;;;;;6.26;72.05;100869.47;5053394;28;19924;-60
2021/12/20 05:01:30;;;;;;;;;;;;;;;6.25;72.50;100865.97;5053639;28;19921;-60
2021/12/20 05:03:56;;;;;;;;;;;;;;;6.24;72.21;100866.00;5053826;28;19928;-60
2021/12/20 05:06:23;;;;;;;;;;;;;;;6.24;72.43;100876.47;5053440;28;20027;-60
2021/12/20 05:08:54;;;;;;;;;;;;;;;6.23;72.47;100885.22;5053455;28;19925;-61
2021/12/20 05:11:21;;;;;;;;;;;;;;;6.21;72.38;100877.41;5053112;28;19920;-60
2021/12/20 05:13:47;;;;;;;;;;;;;;;6.20;72.13;100877.47;5053436;28;19924;-60
2021/12/20 05:16:14;;;;;;;;;;;;;;;6.20;72.22;100877.47;5053369;28;19921;-61
2021/12/20 05:18:40;;;;;;;;;;;;;;;6.18;72.70;100880.09;5053032;28;19924;-61
2021/12/20 05:21:07;;;;;;;;;;;;;;;6.16;72.55;100884.47;5053116;28;19951;-61
2021/12/20 05:23:33;;;;;;;;;;;;;;;6.16;72.35;100881.03;5053069;28;20414;-60
2021/12/20 05:25:59;;;;;;;;;;;;;;;6.13;72.45;100882.78;5052910;28;19921;-60
2021/12/20 05:28:26;;;;;;;;;;;;;;;6.13;72.36;100888.03;5052775;28;19925;-61
2021/12/20 05:30:53;;;;;;;;;;;;;;;6.13;72.70;100885.41;5053049;28;19924;-61
2021/12/20 05:33:20;;;;;;;;;;;;;;;6.15;72.53;100892.34;5052958;28;19929;-60
2021/12/20 05:35:47;;;;;;;;;;;;;;;6.15;72.74;100892.34;5051494;28;19978;-60
2021/12/20 05:38:14;;;;;;;;;;;;;;;6.14;72.69;100886.28;5051464;28;19925;-61
2021/12/20 05:40:40;;;;;;;;;;;;;;;6.15;72.55;100889.72;5052281;28;19920;-61
2021/12/20 05:43:07;;;;;;;;;;;;;;;6.13;72.57;100895.88;5052929;28;20054;-60
2021/12/20 05:45:34;;;;;;;;;;;;;;;6.12;72.70;100888.91;5051834;28;19986;-60
2021/12/20 05:48:00;;;;;;;;;;;;;;;6.13;72.78;100890.63;5052758;28;20315;-61
2021/12/20 05:50:27;;;;;;;;;;;;;;;6.12;72.67;100895.88;5052595;28;20015;-61
2021/12/20 05:52:54;;;;;;;;;;;;;;;6.09;72.23;100899.44;5052393;28;19940;-61
2021/12/20 05:55:20;;;;;;;;;;;;;;;6.05;72.22;100903.00;5052328;28;20352;-61
2021/12/20 05:57:47;;;;;;;;;;;;;;;6.01;71.90;100901.28;5052629;28;19991;-61
2021/12/20 06:00:15;;;;;;;;;;;;;;;5.95;71.93;100907.50;5052369;28;20343;-60
2021/12/20 06:02:42;;;;;;;;;;;;;;;5.89;71.93;100906.75;5052356;28;19924;-60
2021/12/20 06:05:09;;;;;;;;;;;;;;;5.81;71.39;100904.28;5052267;28;19956;-61
2021/12/20 06:07:39;;;;;;;;;;;;;;;5.73;71.65;100904.44;5052264;28;19966;-61
2021/12/20 06:10:06;;;;;;;;;;;;;;;5.65;71.33;100904.59;5052026;28;19921;-60
2021/12/20 06:12:33;;;;;;;;;;;;;;;5.59;71.45;100907.28;5052077;28;20328;-61
2021/12/20 06:14:59;;;;;;;;;;;;;;;5.53;71.26;100912.63;5052228;28;19999;-60
2021/12/20 06:17:26;;;;;;;;;;;;;;;5.46;71.40;100923.16;5050993;28;19925;-60
2021/12/20 06:19:52;;;;;;;;;;;;;;;5.40;71.29;100922.41;5051663;28;20352;-61
2021/12/20 06:22:19;;;;;;;;;;;;;;;5.34;71.36;100926.84;5051865;28;20549;-61
2021/12/20 06:24:45;;;;;;;;;;;;;;;5.30;71.35;100930.41;5052137;28;19978;-61
2021/12/20 06:27:12;;;;;;;;;;;;;;;5.25;71.62;100932.22;5051930;28;19924;-60
2021/12/20 06:29:38;;;;;;;;;;;;;;;5.20;71.72;100921.00;5051623;28;19920;-61
2021/12/20 06:32:05;;;;;;;;;;;;;;;5.17;71.75;100926.25;5050464;28;20365;-60
2021/12/20 06:34:31;;;;;;;;;;;;;;;5.13;71.87;100928.06;5051663;28;19928;-62
2021/12/20 06:37:00;;;;;;;;;;;;;;;5.11;71.93;100931.56;5051531;28;19954;-61
2021/12/20 06:39:31;;;;;;;;;;;;;;;5.08;72.09;100935.09;5051524;28;19925;-62
2021/12/20 06:41:58;;;;;;;;;;;;;;;5.05;72.17;100937.75;5051583;28;19975;-60
2021/12/20 06:44:25;;;;;;;;;;;;;;;5.03;72.19;100943.00;5051367;28;19932;-61
2021/12/20 06:46:51;;;;;;;;;;;;;;;5.02;72.16;100956.94;5051290;28;19975;-60
2021/12/20 06:49:18;;;;;;;;;;;;;;;5.00;72.12;100943.03;5050880;28;19921;-61
2021/12/20 06:51:45;;;;;;;;;;;;;;;4.98;72.16;100942.22;5051338;28;19931;-60
2021/12/20 06:54:13;;;;;;;;;;;;;;;4.97;72.23;100947.44;5051344;28;19955;-62
2021/12/20 06:56:41;;;;;;;;;;;;;;;4.97;72.19;100947.44;5051322;28;19931;-60
2021/12/20 06:59:08;;;;;;;;;;;;;;;4.97;72.21;100948.28;5050741;28;19924;-63
2021/12/20 07:01:36;;;;;;;;;;;;;;;4.95;72.45;100945.72;5050956;28;19924;-62
2021/12/20 07:04:02;;;;;;;;;;;;;;;4.97;72.39;100950.06;5051009;28;19933;-61
2021/12/20 07:06:30;;;;;;;;;;;;;;;4.95;72.28;100957.91;5050543;28;19921;-61
2021/12/20 07:08:56;;;;;;;;;;;;;;;4.95;72.37;100955.28;5049729;28;19964;-63
2021/12/20 07:11:23;;;;;;;;;;;;;;;4.96;72.45;100967.44;5050748;28;19929;-61
2021/12/20 07:13:53;;;;;;;;;;;;;;;4.95;72.50;100966.59;5051059;28;19920;-60
2021/12/20 07:16:20;;;;;;;;;;;;;;;4.96;72.35;100964.84;5050985;28;19921;-60
2021/12/20 07:18:47;;;;;;;;;;;;;;;4.97;72.62;100969.16;5049936;28;19928;-61
2021/12/20 07:21:13;;;;;;;;;;;;;;;4.98;72.37;100970.91;5050928;28;19932;-62
2021/12/20 07:23:40;;;;;;;;;;;;;;;4.98;72.68;100965.69;5050850;28;19925;-60
2021/12/20 07:26:09;;;;;;;;;;;;;;;4.99;72.49;100972.63;5050606;28;20365;-62
2021/12/20 07:28:36;;;;;;;;;;;;;;;4.99;72.49;100977.84;5049562;28;19928;-61
2021/12/20 07:31:03;;;;;;;;;;;;;;;5.00;72.41;100978.69;5050205;28;19925;-62
2021/12/20 07:33:29;;;;;;;;;;;;;;;4.99;72.31;100982.19;5050796;28;19972;-60
2021/12/20 07:35:56;;;;;;;;;;;;;;;5.00;72.54;100989.13;5051037;28;19921;-60
2021/12/20 07:38:22;;;;;;;;;;;;;;;4.98;72.25;100983.97;5050913;28;19938;-61
2021/12/20 07:40:50;;;;;;;;;;;;;;;4.97;72.15;100982.22;5050259;28;19920;-62
2021/12/20 07:43:17;;;;;;;;;;;;;;;4.97;72.27;100979.59;5049302;28;19927;-61
2021/12/20 07:45:47;;;;;;;;;;;;;;;4.97;72.23;100982.22;5050136;28;19924;-61
2021/12/20 07:48:17;;;;;;;;;;;;;;;4.98;72.44;100986.56;5049584;28;20427;-61
2021/12/20 07:50:45;;;;;;;;;;;;;;;4.99;72.39;100995.25;5047683;28;20020;-61
2021/12/20 07:53:11;;;;;;;;;;;;;;;5.00;72.34;100989.13;5050125;28;19925;-62
2021/12/20 07:55:38;;;;;;;;;;;;;;;5.01;72.31;100989.13;5049169;28;19921;-60
2021/12/20 07:58:04;;;;;;;;;;;;;;;5.02;72.54;100983.03;5050420;28;19974;-61
2021/12/20 08:00:32;;;;;;;;;;;;;;;5.04;72.66;100980.38;5050494;28;20503;-61
2021/12/20 08:03:00;;;;;;;;;;;;;;;5.06;72.66;100989.94;5050548;28;20005;-61
2021/12/20 08:05:27;;;;;;;;;;;;;;;5.08;72.49;100990.75;5050690;28;19947;-61
2021/12/20 08:07:54;;;;;;;;;;;;;;;5.11;72.64;100988.97;5050242;28;19921;-62
2021/12/20 08:10:23;;;;;;;;;;;;;;;5.13;72.57;100988.09;5054182;28;19966;-61
2021/12/20 08:12:50;;;;;;;;;;;;;;;5.14;72.44;100988.94;5054345;28;19925;-60
2021/12/20 08:15:17;;;;;;;;;;;;;;;5.15;72.59;100983.72;5053113;28;19928;-60
2021/12/20 08:17:43;;;;;;;;;;;;;;;5.15;72.28;100982.84;5052641;28;20061;-62
2021/12/20 08:20:10;;;;;;;;;;;;;;;5.15;72.23;100994.16;5052615;28;19948;-62
2021/12/20 08:22:37;;;;;;;;;;;;;;;5.16;72.22;100993.25;5054182;28;19924;-62
2021/12/20 08:25:04;;;;;;;;;;;;;;;5.15;72.08;100995.88;5054179;28;19920;-63
2021/12/20 08:27:30;;;;;;;;;;;;;;;5.15;72.25;100999.38;5053987;28;19924;-62
2021/12/20 08:29:57;;;;;;;;;;;;;;;5.16;72.25;100997.63;5054179;28;19921;-60
2021/12/20 08:32:24;;;;;;;;;;;;;;;5.17;72.25;101007.19;5053938;28;19965;-60
2021/12/20 08:34:52;;;;;;;;;;;;;;;5.19;72.21;101005.41;5053832;28;19971;-61
2021/12/20 08:37:18;;;;;;;;;;;;;;;5.19;72.43;101021.06;5053977;28;19925;-66
2021/12/20 08:39:45;;;;;;;;;;;;;;;5.20;72.26;101012.38;5052170;28;19925;-60
2021/12/20 08:42:12;;;;;;;;;;;;;;;5.21;72.15;101024.53;5054101;28;19987;-61
2021/12/20 08:44:38;;;;;;;;;;;;;;;5.25;72.30;101018.38;5052621;28;19925;-63
2021/12/20 08:47:05;;;;;;;;;;;;;;;5.26;72.31;101022.72;5053666;28;19925;-60
2021/12/20 08:49:31;;;;;;;;;;;;;;;5.27;72.27;101024.44;5052097;28;20352;-61
2021/12/20 08:51:59;;;;;;;;;;;;;;;5.30;72.00;101026.13;5053408;28;19921;-60
2021/12/20 08:54:28;;;;;;;;;;;;;;;5.31;72.38;101027.88;5053357;28;19956;-61
2021/12/20 08:56:56;;;;;;;;;;;;;;;5.33;72.17;101024.34;5052445;28;20043;-61
2021/12/20 08:59:23;;;;;;;;;;;;;;;5.35;72.17;101033.00;5051939;28;19924;-61
2021/12/20 09:01:49;;;;;;;;;;;;;;;5.37;72.37;101033.00;5053308;28;19979;-61
2021/12/20 09:04:16;;;;;;;;;;;;;;;5.38;72.25;101042.56;5053368;28;19921;-61
2021/12/20 09:06:43;;;;;;;;;;;;;;;5.40;72.11;101045.16;5053243;28;19928;-62
2021/12/20 09:09:11;;;;;;;;;;;;;;;5.41;71.89;101033.81;5052936;28;19925;-62
2021/12/20 09:11:39;;;;;;;;;;;;;;;5.43;72.21;101035.53;5053312;28;19924;-69
2021/12/20 09:14:10;;;;;;;;;;;;;;;5.45;72.18;101040.72;5053137;28;19925;-62
2021/12/20 09:16:37;;;;;;;;;;;;;;;5.46;72.28;101045.91;5053176;28;19928;-60
2021/12/20 09:19:03;;;;;;;;;;;;;;;5.49;72.19;101045.00;5050923;28;20293;-63
2021/12/20 09:21:30;;;;;;;;;;;;;;;5.51;72.02;101048.47;5052244;28;20383;-61
2021/12/20 09:23:57;;;;;;;;;;;;;;;5.53;72.26;101051.91;5053001;28;19921;-60
2021/12/20 09:26:23;;;;;;;;;;;;;;;5.57;72.07;101053.59;5052864;28;19931;-61
2021/12/20 09:28:50;;;;;;;;;;;;;;;5.60;72.32;101048.31;5052956;28;19921;-61
2021/12/20 09:31:16;;;;;;;;;;;;;;;5.64;72.16;101049.13;5052581;28;20418;-61
2021/12/20 09:33:43;;;;;;;;;;;;;;;5.68;72.24;101053.41;5052678;28;19924;-60
2021/12/20 09:36:09;;;;;;;;;;;;;;;5.72;72.14;101060.31;5052662;28;19924;-62
2021/12/20 09:38:36;;;;;;;;;;;;;;;5.76;72.16;101053.31;5052853;28;19951;-62
2021/12/20 09:43:38;;;;;;;;;;;;;;;5.84;72.19;101059.25;5052603;28;19924;-62
2021/12/20 09:46:04;;;;;;;;;;;;;;;5.90;72.01;101065.31;5052753;28;19924;-60
2021/12/20 09:48:31;;;;;;;;;;;;;;;5.92;72.31;101067.00;5052427;28;19924;-61
2021/12/20 09:50:58;;;;;;;;;;;;;;;5.97;72.36;101066.91;5052564;28;19925;-61
2021/12/20 09:53:24;;;;;;;;;;;;;;;5.99;72.04;101067.75;5052544;28;19920;-61
2021/12/20 09:55:51;;;;;;;;;;;;;;;6.03;72.02;101079.00;5051374;28;19951;-61
2021/12/20 09:58:20;;;;;;;;;;;;;;;6.06;71.89;101071.16;5052298;28;19971;-63
2021/12/20 10:00:47;;;;;;;;;;;;;;;6.08;72.13;101070.25;5051940;28;20360;-61
2021/12/20 10:03:14;;;;;;;;;;;;;;;6.12;71.87;101068.44;5051067;28;20012;-62
2021/12/20 10:05:40;;;;;;;;;;;;;;;6.15;72.11;101071.00;5052502;28;19920;-62
2021/12/20 10:08:16;;;;;;;;;;;;;;;6.19;72.09;101066.56;5051149;28;19971;-62
2021/12/20 10:10:44;;;;;;;;;;;;;;;6.22;72.21;101070.00;5052096;28;19929;-61
2021/12/20 10:13:25;;;;;;;;;;;;;;;6.27;72.09;101076.91;5052134;28;19921;-61
2021/12/20 10:15:52;;;;;;;;;;;;;;;6.30;71.92;101066.38;5052190;28;19979;-61
2021/12/20 10:18:19;;;;;;;;;;;;;;;6.32;71.86;101068.06;5052182;28;20404;-61
2021/12/20 10:20:50;;;;;;;;;;;;;;;6.35;71.89;101062.78;5051855;28;19936;-60
2021/12/20 10:23:21;;;;;;;;;;;;;;;6.37;71.93;101065.38;5052004;28;20598;-61
2021/12/20 10:25:52;;;;;;;;;;;;;;;6.40;71.53;101070.56;5051870;28;19963;-61
2021/12/20 10:28:25;;;;;;;;;;;;;;;6.42;71.74;101066.16;5051794;28;20626;-61
2021/12/20 10:30:56;;;;;;;;;;;;;;;6.44;71.59;101066.13;5051364;28;20022;-60
2021/12/20 10:33:23;;;;;;;;;;;;;;;6.47;71.89;101063.47;5051885;28;19925;-63
2021/12/20 10:35:52;;;;;;;;;;;;;;;6.49;71.74;101059.06;5051964;28;19947;-61
2021/12/20 10:38:20;;;;;;;;;;;;;;;6.52;71.79;101069.47;5050308;28;20351;-61
2021/12/20 10:40:58;;;;;;;;;;;;;;;6.55;71.46;101068.56;5050204;28;19924;-61
2021/12/20 10:43:26;;;;;;;;;;;;;;;6.58;71.50;101074.56;5050380;28;19928;-61
2021/12/20 10:45:54;;;;;;;;;;;;;;;6.61;71.73;101071.91;5050441;28;19920;-62
2021/12/20 10:48:41;;;;;;;;;;;;;;;6.64;71.66;101066.63;5051713;28;20018;-61
2021/12/20 10:51:22;;;;;;;;;;;;;;;6.69;72.04;101066.53;5051391;28;19924;-60
2021/12/20 10:53:56;;;;;;;;;;;;;;;6.72;72.00;101066.47;5051596;28;19929;-62
2021/12/20 10:56:24;;;;;;;;;;;;;;;6.76;72.09;101067.25;5050002;28;19932;-61
2021/12/20 10:58:53;;;;;;;;;;;;;;;6.80;71.79;101068.94;5049999;28;19925;-61
2021/12/20 11:03:59;;;;;;;;;;;;;;;6.87;71.81;101065.31;5051268;28;19920;-61
2021/12/20 11:06:41;;;;;;;;;;;;;;;6.90;71.73;101070.47;5050054;28;20015;-60
2021/12/20 11:09:13;;;;;;;;;;;;;;;6.98;72.02;101069.44;5051014;28;19966;-61
2021/12/20 11:11:41;;;;;;;;;;;;;;;7.06;72.23;101064.91;5049673;28;19925;-61
2021/12/20 11:14:08;;;;;;;;;;;;;;;7.22;72.86;101069.84;5050975;28;19944;-60
2021/12/20 11:16:43;;;;;;;;;;;;;;;7.44;73.44;101064.97;5050911;28;19925;-62
2021/12/20 11:19:17;;;;;;;;;;;;;;;7.83;74.48;101064.06;5050977;28;19947;-62
2021/12/20 11:21:48;;;;;;;;;;;;;;;8.37;75.81;101064.44;5050837;28;19928;-62
2021/12/20 11:24:16;;;;;;;;;;;;;;;9.05;77.62;101063.50;5049399;28;19921;-61
2021/12/20 11:26:43;;;;;;;;;;;;;;;9.84;78.51;101061.06;5050745;28;20446;-61
2021/12/20 11:29:10;;;;;;;;;;;;;;;10.69;79.40;101056.44;5050706;28;19921;-61
2021/12/20 11:31:37;;;;;;;;;;;;;;;11.58;80.23;101056.56;5050820;28;19925;-62
2021/12/20 11:34:05;;;;;;;;;;;;;;;12.51;80.66;101057.13;5050816;28;19991;-61
2021/12/20 11:36:32;;;;;;;;;;;;;;;13.42;80.94;101056.53;5050767;28;20384;-62
2021/12/20 11:38:59;;;;;;;;;;;;;;;14.29;80.22;101062.00;5050638;28;19979;-61
2021/12/20 11:41:26;;;;;;;;;;;;;;;15.09;79.41;101057.84;5050608;28;19925;-61
2021/12/20 11:43:56;;;;;;;;;;;;;;;15.81;78.05;101054.69;5052279;28;19963;-62
2021/12/20 11:46:25;;;;;;;;;;;;;;;16.48;76.47;101048.13;5054605;28;19980;-63
2021/12/20 11:48:51;;;;;;;;;;;;;;;17.07;75.27;101056.94;5054859;28;19920;-62
2021/12/20 11:51:18;;;;;;;;;;;;;;;17.62;74.26;101056.13;5054375;28;19921;-62
2021/12/20 11:53:45;;;;;;;;;;;;;;;18.13;73.67;101057.22;5055054;28;19928;-62
2021/12/20 11:56:11;;;;;;;;;;;;;;;18.60;73.53;101055.75;5054783;28;19924;-61
2021/12/20 11:58:44;;;;;;;;;;;;;;;19.07;73.86;101046.31;5054834;28;19920;-61
2021/12/20 12:01:16;;;;;;;;;;;;;;;19.55;72.38;101044.63;5054339;28;20328;-62
2021/12/20 12:03:53;;;;;;;;;;;;;;;19.98;72.02;101043.19;5054516;28;19929;-63
2021/12/20 12:06:24;;;;;;;;;;;;;;;20.39;71.64;101038.31;5054760;28;19924;-62
2021/12/20 12:08:55;;;;;;;;;;;;;;;20.75;71.15;101038.19;5054668;28;20307;-62
2021/12/20 12:11:27;;;;;;;;;;;;;;;21.12;71.52;101042.44;5052964;28;19921;-61
2021/12/20 12:14:05;;;;;;;;;;;;;;;21.44;70.10;101044.28;5054718;28;19921;-62
2021/12/20 12:17:02;;;;;;;;;;;;;;;21.75;69.22;101041.75;5053015;28;19921;-61
2021/12/20 12:19:50;;;;;;;;;;;;;;;22.05;66.65;101047.31;5049507;28;19921;-61
2021/12/20 12:22:26;;;;;;;;;;;;;;;22.24;64.00;101043.91;5053089;28;19934;-64
2021/12/20 12:24:56;;;;;;;;;;;;;;;22.39;64.18;101033.69;5054112;28;19932;-62
2021/12/20 12:27:30;;;;;;;;;;;;;;;22.48;64.22;101032.03;5053064;28;19927;-62
2021/12/20 12:30:12;;;;;;;;;;;;;;;22.50;61.60;101033.59;5052550;28;20343;-62
2021/12/20 12:32:58;;;;;;;;;;;;;;;22.39;60.89;101033.69;5054191;28;19921;-62
2021/12/20 12:35:37;;;;;;;;;;;;;;;22.13;59.97;101034.13;5054488;28;20007;-62
2021/12/20 12:38:16;;;;;;;;;;;;;;;21.79;58.87;101037.00;5054132;28;19924;-62
2021/12/20 12:40:49;;;;;;;;;;;;;;;21.39;59.28;101025.94;5053577;28;20011;-62
2021/12/20 12:43:16;;;;;;;;;;;;;;;21.03;59.69;101022.59;5052500;28;19921;-63
2021/12/20 12:45:49;;;;;;;;;;;;;;;20.66;59.89;101021.91;5053664;28;19929;-62
2021/12/20 12:48:51;;;;;;;;;;;;;;;20.33;60.19;101022.75;5053761;28;19920;-63
2021/12/20 12:51:17;;;;;;;;;;;;;;;20.03;61.71;101031.19;5030523;28;19921;-63
2021/12/20 12:53:45;;;;;;;;;;;;;;;19.91;62.15;101032.97;5048632;28;19921;-63
2021/12/20 12:56:27;;;;;;;;;;;;;;;19.88;63.80;101027.84;5053384;28;19968;-62
2021/12/20 12:59:13;;;;;;;;;;;;;;;19.91;63.93;101027.63;5052082;28;19921;-63
2021/12/20 13:01:40;;;;;;;;;;;;;;;19.91;62.91;101030.31;5053324;28;19921;-62
2021/12/20 13:04:07;;;;;;;;;;;;;;;19.83;61.65;101027.34;5052074;28;19931;-62
2021/12/20 13:06:34;;;;;;;;;;;;;;;19.63;60.01;101032.38;5053299;28;19920;-62
2021/12/20 13:09:01;;;;;;;;;;;;;;;19.34;60.39;101032.75;5053575;28;19925;-62